Santa Cruz de la Sierra, Bolivia
Current Conditions -  °F | °C
As of 9:00 AM on Saturday 20 Dec 2014 (Local Time) from SLET Reporting Station
Overcast Overcast  
Wind Chill: 75°   Ceiling: 1100
Heat Index: 75°   Visibility: 6mi
Dew Point: 70°   Wind: 23mph
Humidity: 83%   Direction: 320°NW
Pressure: 29.68"   Gusts: 38mph
Location:  17.79°S, 63.2°W
Report Text: SLET 201300Z 32020G33KT 9999 SCT007 BKN011 OVC015 24/21 Q1005
Loading
Personal Weather Stations






























Interactive Weather Map New forecast layout! Learn more

10-Day Weather Forecast

Advertisements
Track Severe Weather on mobile